createdAt,value
2022-10-28T00:01:50.149Z,30.90
2022-10-28T00:04:35.276Z,32.33
2022-10-28T00:07:20.022Z,30.85
2022-10-28T00:10:05.701Z,31.20
2022-10-28T00:12:50.311Z,31.02
2022-10-28T00:18:19.826Z,28.42
2022-10-28T00:21:17.069Z,28.33
2022-10-28T00:24:01.913Z,28.92
2022-10-28T00:26:46.752Z,29.30
2022-10-28T00:29:31.814Z,28.38
2022-10-28T00:32:16.891Z,28.45
2022-10-28T00:35:01.843Z,26.42
2022-10-28T00:37:46.910Z,26.60
2022-10-28T00:43:53.052Z,23.67
2022-10-28T00:46:45.377Z,24.30
2022-10-28T00:49:33.211Z,25.73
2022-10-28T00:52:23.736Z,26.45
2022-10-28T00:55:08.990Z,26.60
2022-10-28T00:57:56.096Z,27.27
2022-10-28T01:00:41.194Z,27.02
2022-10-28T01:03:26.165Z,25.15
2022-10-28T01:06:11.399Z,28.70
2022-10-28T01:08:59.142Z,26.23
2022-10-28T01:12:21.416Z,24.45
2022-10-28T01:15:26.948Z,22.13
2022-10-28T01:18:11.873Z,20.92
2022-10-28T01:21:34.025Z,21.63
2022-10-28T01:27:40.987Z,19.50
2022-10-28T01:30:55.383Z,19.60
2022-10-28T01:34:07.348Z,19.35
2022-10-28T01:37:20.383Z,21.50
2022-10-28T01:40:29.146Z,19.55
2022-10-28T01:43:28.642Z,18.55
2022-10-28T01:46:24.396Z,20.85
2022-10-28T01:49:29.679Z,22.05
2022-10-28T01:52:20.234Z,20.05
2022-10-28T01:55:14.958Z,21.38
2022-10-28T01:58:02.780Z,20.85
2022-10-28T02:00:49.017Z,20.67
2022-10-28T02:03:34.071Z,18.85
2022-10-28T02:06:23.303Z,19.10
2022-10-28T02:09:18.382Z,17.67
2022-10-28T02:12:15.514Z,19.83
2022-10-28T02:15:21.906Z,20.42
2022-10-28T02:18:23.219Z,19.60
2022-10-28T02:21:27.655Z,21.25
2022-10-28T02:24:49.831Z,20.98
2022-10-28T02:27:43.406Z,20.38
2022-10-28T02:30:47.782Z,21.13
2022-10-28T02:33:38.042Z,20.38
2022-10-28T02:36:25.186Z,18.95
2022-10-28T02:39:10.920Z,19.35
2022-10-28T02:41:59.761Z,23.17
2022-10-28T02:44:51.233Z,23.27
2022-10-28T02:47:39.772Z,21.92
2022-10-28T02:50:31.677Z,21.67
2022-10-28T02:53:21.059Z,22.17
2022-10-28T02:56:07.780Z,19.70
2022-10-28T02:58:52.838Z,19.05
2022-10-28T03:01:38.668Z,16.90
2022-10-28T03:04:24.016Z,17.42
2022-10-28T03:07:08.823Z,16.73
2022-10-28T03:09:53.682Z,16.65
2022-10-28T03:15:22.828Z,16.40
2022-10-28T03:18:07.948Z,16.02
2022-10-28T03:20:55.479Z,15.23
2022-10-28T03:23:42.864Z,16.42
2022-10-28T03:26:27.822Z,18.48
2022-10-28T03:29:12.771Z,17.35
2022-10-28T03:31:58.079Z,16.35
2022-10-28T03:34:42.584Z,17.50
2022-10-28T03:37:27.640Z,17.88
2022-10-28T03:40:13.152Z,18.30
2022-10-28T03:42:58.383Z,20.20
2022-10-28T03:45:43.731Z,20.85
2022-10-28T03:48:28.503Z,20.85
2022-10-28T03:51:13.627Z,21.27
2022-10-28T03:53:58.815Z,21.38
2022-10-28T03:56:43.329Z,19.52
2022-10-28T03:59:28.404Z,19.73
2022-10-28T04:02:14.967Z,20.55
2022-10-28T04:05:00.006Z,20.38
2022-10-28T04:07:45.092Z,21.50
2022-10-28T04:10:30.084Z,21.63
2022-10-28T04:13:16.374Z,22.48
2022-10-28T04:16:01.436Z,23.23
2022-10-28T04:18:46.067Z,21.52
2022-10-28T04:21:30.855Z,19.77
2022-10-28T04:24:15.772Z,24.67
2022-10-28T04:27:00.584Z,28.02
2022-10-28T04:29:45.545Z,26.27
2022-10-28T04:32:30.827Z,26.00
2022-10-28T04:35:15.936Z,27.25
2022-10-28T04:38:00.962Z,31.35
2022-10-28T04:40:49.524Z,34.67
2022-10-28T04:43:34.212Z,31.73
2022-10-28T04:46:18.570Z,30.27
2022-10-28T04:49:03.651Z,32.28
2022-10-28T04:51:48.508Z,30.05
2022-10-28T04:54:33.416Z,30.27
2022-10-28T04:57:18.306Z,26.13
2022-10-28T05:00:04.260Z,21.58
2022-10-28T05:02:49.439Z,20.70
2022-10-28T05:05:34.207Z,21.05
2022-10-28T05:08:18.639Z,26.45
2022-10-28T05:11:04.393Z,27.65
2022-10-28T05:13:53.384Z,30.67
2022-10-28T05:16:38.457Z,31.80
2022-10-28T05:19:23.639Z,35.58
2022-10-28T05:22:10.933Z,37.15
2022-10-28T05:24:57.647Z,33.15
2022-10-28T05:28:13.801Z,31.38
2022-10-28T05:31:33.284Z,28.88
2022-10-28T05:34:18.017Z,26.98
2022-10-28T05:37:03.359Z,27.48
2022-10-28T05:39:48.389Z,26.92
2022-10-28T05:42:33.421Z,27.85
2022-10-28T05:45:20.058Z,28.48
2022-10-28T05:48:05.914Z,27.38
2022-10-28T05:50:50.747Z,26.40
2022-10-28T05:53:35.515Z,26.50
2022-10-28T05:56:22.749Z,25.98
2022-10-28T05:59:07.437Z,25.13
2022-10-28T06:01:53.854Z,25.05
2022-10-28T06:04:38.606Z,21.42
2022-10-28T06:07:24.025Z,20.58
2022-10-28T06:10:10.893Z,20.48
2022-10-28T06:12:56.196Z,19.30
2022-10-28T06:15:41.173Z,20.20
2022-10-28T06:18:26.416Z,20.52
2022-10-28T06:21:25.844Z,21.52
2022-10-28T06:24:14.732Z,20.88
2022-10-28T06:26:59.775Z,22.42
2022-10-28T06:29:44.620Z,20.20
2022-10-28T06:32:29.949Z,22.52
2022-10-28T06:35:14.892Z,23.48
2022-10-28T06:37:59.733Z,22.10
2022-10-28T06:40:49.012Z,21.27
2022-10-28T06:43:36.661Z,21.33
2022-10-28T06:46:21.623Z,20.42
2022-10-28T06:49:11.372Z,23.88
2022-10-28T06:51:56.202Z,22.92
2022-10-28T06:54:43.031Z,22.10
2022-10-28T06:57:29.284Z,21.83
2022-10-28T07:00:15.906Z,20.40
2022-10-28T07:03:01.727Z,19.35
2022-10-28T07:05:51.143Z,19.83
2022-10-28T07:09:04.656Z,19.73
2022-10-28T07:11:55.103Z,18.33
2022-10-28T07:14:46.636Z,18.23
2022-10-28T07:17:31.870Z,19.27
2022-10-28T07:20:34.188Z,18.08
2022-10-28T07:23:20.381Z,18.52
2022-10-28T07:26:05.185Z,16.77
2022-10-28T07:29:03.813Z,17.60
2022-10-28T07:31:59.233Z,16.77
2022-10-28T07:34:44.576Z,16.08
2022-10-28T07:37:29.343Z,17.38
2022-10-28T07:40:20.596Z,16.27
2022-10-28T07:43:05.653Z,16.02
2022-10-28T07:46:09.891Z,15.63
2022-10-28T07:49:00.938Z,15.80
2022-10-28T07:52:12.741Z,16.23
2022-10-28T07:54:59.103Z,14.90
2022-10-28T07:57:46.545Z,15.05
2022-10-28T08:00:31.408Z,15.70
2022-10-28T08:03:16.135Z,15.85
2022-10-28T08:06:14.453Z,15.85
2022-10-28T08:09:05.958Z,16.05
2022-10-28T08:11:57.379Z,15.25
2022-10-28T08:14:55.583Z,14.98
2022-10-28T08:17:55.014Z,16.42
2022-10-28T08:20:40.067Z,16.80
2022-10-28T08:23:27.787Z,16.40
2022-10-28T08:26:38.598Z,16.73
2022-10-28T08:29:27.662Z,17.02
2022-10-28T08:32:15.235Z,15.85
2022-10-28T08:35:04.279Z,16.38
2022-10-28T08:37:53.037Z,17.38
2022-10-28T08:41:08.820Z,16.83
2022-10-28T08:44:11.722Z,17.48
2022-10-28T08:47:40.782Z,16.88
2022-10-28T08:50:31.596Z,17.23
2022-10-28T08:53:53.838Z,18.25
2022-10-28T08:56:45.545Z,17.75
2022-10-28T08:59:40.857Z,16.75
2022-10-28T09:02:48.638Z,15.52
2022-10-28T09:05:34.524Z,14.68
2022-10-28T09:08:26.088Z,14.23
2022-10-28T09:11:37.496Z,14.88
2022-10-28T09:14:52.631Z,13.82
2022-10-28T09:17:58.308Z,13.13
2022-10-28T09:20:56.553Z,15.48
2022-10-28T09:23:59.483Z,14.25
2022-10-28T09:26:54.383Z,15.45
2022-10-28T09:30:00.240Z,14.20
2022-10-28T09:32:56.375Z,13.73
2022-10-28T09:35:43.843Z,12.18
2022-10-28T09:38:32.257Z,12.27
2022-10-28T09:41:24.094Z,13.23
2022-10-28T09:44:24.748Z,12.05
2022-10-28T09:47:44.518Z,11.93
2022-10-28T09:50:32.473Z,11.70
2022-10-28T09:53:37.622Z,11.23
2022-10-28T09:56:24.546Z,11.23
2022-10-28T09:59:14.155Z,11.65
2022-10-28T10:01:59.540Z,11.32
2022-10-28T10:04:44.758Z,10.85
2022-10-28T10:07:40.974Z,10.77
2022-10-28T10:10:31.848Z,10.57
2022-10-28T10:13:23.459Z,10.30
2022-10-28T10:16:40.409Z,9.38
2022-10-28T10:19:25.131Z,10.02
2022-10-28T10:22:41.731Z,9.52
2022-10-28T10:25:48.724Z,9.70
2022-10-28T10:28:53.150Z,9.18
2022-10-28T10:32:12.347Z,8.90
2022-10-28T10:35:12.643Z,9.75
2022-10-28T10:38:00.638Z,9.05
2022-10-28T10:40:51.214Z,9.98
2022-10-28T10:43:36.328Z,9.70
2022-10-28T10:46:23.703Z,9.63
2022-10-28T10:49:17.926Z,9.40
2022-10-28T10:52:09.066Z,10.10
2022-10-28T10:55:06.691Z,11.40
2022-10-28T10:57:52.678Z,10.45
2022-10-28T11:03:54.405Z,10.82
2022-10-28T11:06:43.170Z,12.10
2022-10-28T11:09:35.563Z,13.50
2022-10-28T11:12:20.168Z,12.50
2022-10-28T11:15:22.577Z,12.05
2022-10-28T11:20:58.483Z,11.82
2022-10-28T11:24:03.499Z,12.48
2022-10-28T11:27:19.354Z,12.85
2022-10-28T11:30:14.849Z,12.43
2022-10-28T11:33:28.924Z,14.35
2022-10-28T11:36:37.906Z,14.45
2022-10-28T11:39:33.540Z,14.38
2022-10-28T11:42:40.001Z,14.35
2022-10-28T11:45:33.579Z,14.30
2022-10-28T11:48:53.559Z,14.88
2022-10-28T11:51:53.045Z,16.08
2022-10-28T11:54:56.369Z,15.82
2022-10-28T11:58:20.003Z,16.45
2022-10-28T12:01:23.412Z,16.77
2022-10-28T12:04:14.194Z,18.08
2022-10-28T12:07:14.162Z,17.70
2022-10-28T12:10:28.603Z,18.67
2022-10-28T12:13:22.551Z,18.10
2022-10-28T12:16:34.042Z,18.88
2022-10-28T12:19:25.013Z,18.42
2022-10-28T12:22:13.057Z,17.67
2022-10-28T12:25:02.910Z,18.13
2022-10-28T12:27:50.655Z,18.80
2022-10-28T12:30:41.014Z,19.83
2022-10-28T12:33:48.699Z,18.65
2022-10-28T12:36:57.830Z,20.95
2022-10-28T12:40:08.932Z,20.42
2022-10-28T12:43:03.665Z,21.13
2022-10-28T12:45:50.943Z,20.40
2022-10-28T12:48:35.756Z,20.55
2022-10-28T12:51:20.591Z,20.13
2022-10-28T12:54:23.785Z,19.88
2022-10-28T12:57:08.466Z,20.70
2022-10-28T13:00:05.895Z,20.63
2022-10-28T13:03:00.389Z,20.35
2022-10-28T13:05:57.398Z,19.20
2022-10-28T13:09:10.108Z,20.85
2022-10-28T13:12:31.651Z,20.15
2022-10-28T13:18:27.078Z,20.95
2022-10-28T13:21:14.839Z,20.10
2022-10-28T13:24:38.598Z,20.77
2022-10-28T13:27:24.447Z,21.38
2022-10-28T13:30:21.386Z,21.17
2022-10-28T13:33:08.299Z,22.52
2022-10-28T13:36:06.936Z,19.88
2022-10-28T13:38:59.164Z,20.42
2022-10-28T13:41:47.925Z,19.60
2022-10-28T13:44:48.977Z,21.20
2022-10-28T13:47:35.367Z,17.73
2022-10-28T13:50:31.222Z,16.65
2022-10-28T13:53:28.370Z,17.42
2022-10-28T13:56:34.783Z,21.73
2022-10-28T13:59:34.243Z,20.27
2022-10-28T14:02:48.218Z,20.13
2022-10-28T14:05:32.775Z,19.55
2022-10-28T14:08:27.094Z,18.13
2022-10-28T14:11:28.528Z,17.35
2022-10-28T14:14:16.430Z,17.70
2022-10-28T14:17:01.388Z,19.02
2022-10-28T14:19:51.283Z,20.48
2022-10-28T14:22:36.345Z,21.10
2022-10-28T14:25:40.087Z,20.13
2022-10-28T14:28:28.518Z,19.88
2022-10-28T14:31:14.074Z,19.35
2022-10-28T14:33:58.887Z,21.55
2022-10-28T14:36:49.586Z,21.58
2022-10-28T14:39:57.267Z,23.58
2022-10-28T14:43:30.674Z,22.15
2022-10-28T14:46:27.727Z,22.30
2022-10-28T14:52:11.210Z,21.65
2022-10-28T14:54:59.033Z,22.00
2022-10-28T14:57:43.976Z,21.73
2022-10-28T15:00:28.827Z,24.98
2022-10-28T15:03:13.899Z,33.88
2022-10-28T15:06:18.871Z,49.55
2022-10-28T15:09:12.768Z,50.15
2022-10-28T15:12:13.626Z,48.90
2022-10-28T15:14:58.140Z,45.72
2022-10-28T15:17:43.233Z,44.83
2022-10-28T15:20:31.174Z,44.72
2022-10-28T15:23:18.574Z,47.28
2022-10-28T15:26:14.786Z,46.25
2022-10-28T15:29:00.565Z,45.45
2022-10-28T15:32:26.483Z,50.55
2022-10-28T15:35:29.993Z,43.83
2022-10-28T15:38:21.181Z,44.67
2022-10-28T15:41:22.360Z,44.15
2022-10-28T15:44:27.300Z,45.55
2022-10-28T15:47:32.202Z,43.40
2022-10-28T15:50:16.837Z,41.78
2022-10-28T15:53:10.778Z,41.83
2022-10-28T15:56:19.618Z,41.80
2022-10-28T16:02:02.037Z,61.65
2022-10-28T16:04:47.034Z,68.82
2022-10-28T16:07:32.251Z,85.25
2022-10-28T16:10:17.153Z,97.50
2022-10-28T16:13:07.692Z,107.72
2022-10-28T16:16:12.347Z,107.97
2022-10-28T16:19:00.144Z,102.97
2022-10-28T16:21:45.253Z,89.55
2022-10-28T16:24:29.828Z,80.13
2022-10-28T16:27:24.047Z,71.43
2022-10-28T16:30:09.890Z,68.10
2022-10-28T16:32:56.073Z,61.75
2022-10-28T16:35:40.835Z,60.17
2022-10-28T16:38:26.264Z,58.22
2022-10-28T16:41:16.728Z,57.42
2022-10-28T16:46:46.331Z,56.80
2022-10-28T16:49:31.140Z,60.45
2022-10-28T16:52:19.413Z,58.25
2022-10-28T16:55:12.733Z,55.90
2022-10-28T16:57:57.654Z,53.90
2022-10-28T17:00:42.689Z,53.05
2022-10-28T17:03:27.330Z,52.42
2022-10-28T17:06:12.226Z,52.28
2022-10-28T17:09:02.913Z,50.58
2022-10-28T17:11:48.516Z,49.25
2022-10-28T17:14:33.203Z,49.58
2022-10-28T17:17:18.757Z,48.58
2022-10-28T17:20:04.405Z,48.00
2022-10-28T17:22:49.039Z,48.83
2022-10-28T17:25:33.512Z,48.15
2022-10-28T17:28:18.504Z,44.67
2022-10-28T17:31:05.883Z,45.78
2022-10-28T17:33:55.511Z,53.95
2022-10-28T17:36:40.034Z,50.80
2022-10-28T17:39:26.622Z,51.90
2022-10-28T17:42:11.933Z,51.22
2022-10-28T17:44:56.672Z,51.70
2022-10-28T17:47:42.319Z,50.97
2022-10-28T17:50:27.301Z,51.50
2022-10-28T17:53:11.779Z,54.20
2022-10-28T17:55:57.279Z,48.50
2022-10-28T17:58:42.090Z,43.80
2022-10-28T18:01:31.955Z,43.17
2022-10-28T18:04:16.927Z,41.53
2022-10-28T18:07:01.841Z,42.45
2022-10-28T18:09:46.896Z,40.72
2022-10-28T18:12:32.022Z,41.85
2022-10-28T18:15:17.095Z,36.58
2022-10-28T18:18:01.901Z,35.50
2022-10-28T18:20:53.803Z,33.90
2022-10-28T18:23:40.257Z,36.28
2022-10-28T18:26:25.214Z,37.15
2022-10-28T18:29:12.466Z,36.50
2022-10-28T18:31:57.265Z,42.22
2022-10-28T18:34:42.559Z,42.42
2022-10-28T18:37:27.784Z,37.67
2022-10-28T18:40:13.008Z,37.75
2022-10-28T18:42:57.754Z,36.80
2022-10-28T18:45:42.432Z,34.67
2022-10-28T18:48:27.678Z,36.03
2022-10-28T18:51:13.166Z,35.08
2022-10-28T18:53:57.837Z,35.10
2022-10-28T18:56:47.586Z,37.50
2022-10-28T18:59:35.106Z,37.35
2022-10-28T19:02:19.911Z,39.35
2022-10-28T19:05:04.898Z,38.47
2022-10-28T19:07:49.821Z,37.13
2022-10-28T19:10:35.461Z,36.95
2022-10-28T19:13:20.379Z,38.00
2022-10-28T19:16:06.706Z,36.17
2022-10-28T19:18:56.415Z,35.15
2022-10-28T19:21:41.480Z,32.47
2022-10-28T19:24:27.053Z,31.25
2022-10-28T19:27:11.855Z,33.35
2022-10-28T19:29:59.125Z,31.35
2022-10-28T19:32:44.074Z,29.77
2022-10-28T19:35:28.695Z,28.13
2022-10-28T19:38:13.513Z,27.48
2022-10-28T19:41:07.573Z,27.55
2022-10-28T19:43:58.561Z,27.77
2022-10-28T19:46:43.733Z,28.30
2022-10-28T19:49:35.515Z,29.52
2022-10-28T19:52:22.532Z,28.75
2022-10-28T19:55:10.936Z,31.42
2022-10-28T19:57:59.044Z,38.95
2022-10-28T20:00:44.229Z,40.17
2022-10-28T20:03:34.289Z,35.28
2022-10-28T20:06:22.171Z,33.67
2022-10-28T20:09:07.172Z,32.45
2022-10-28T20:11:51.730Z,30.23
2022-10-28T20:14:36.756Z,29.45
2022-10-28T20:17:21.706Z,27.00
2022-10-28T20:20:07.287Z,26.08
2022-10-28T20:22:52.156Z,24.60
2022-10-28T20:25:36.923Z,23.88
2022-10-28T20:28:22.047Z,22.17
2022-10-28T20:31:09.762Z,23.30
2022-10-28T20:33:59.996Z,21.77
2022-10-28T20:36:44.648Z,21.42
2022-10-28T20:39:29.579Z,22.55
2022-10-28T20:42:14.505Z,23.35
2022-10-28T20:44:59.380Z,23.58
2022-10-28T20:50:28.444Z,21.08
2022-10-28T20:53:13.314Z,20.25
2022-10-28T20:55:59.082Z,20.55
2022-10-28T20:58:44.023Z,23.77
2022-10-28T21:01:31.592Z,22.08
2022-10-28T21:04:16.933Z,20.15
2022-10-28T21:07:01.682Z,20.40
2022-10-28T21:09:46.778Z,20.67
2022-10-28T21:12:31.740Z,20.42
2022-10-28T21:15:16.767Z,20.30
2022-10-28T21:18:02.533Z,20.60
2022-10-28T21:20:47.052Z,21.48
2022-10-28T21:23:32.237Z,20.52
2022-10-28T21:26:17.535Z,20.40
2022-10-28T21:29:02.266Z,20.15
2022-10-28T21:31:47.046Z,20.27
2022-10-28T21:37:16.048Z,18.80
2022-10-28T21:40:01.378Z,19.85
2022-10-28T21:42:49.524Z,19.58
2022-10-28T21:45:34.128Z,18.58
2022-10-28T21:48:19.038Z,19.27
2022-10-28T21:51:08.643Z,17.58
2022-10-28T21:53:56.361Z,17.73
2022-10-28T21:56:41.394Z,16.90
2022-10-28T21:59:26.265Z,17.63
2022-10-28T22:02:11.273Z,17.67
2022-10-28T22:04:56.235Z,15.50
2022-10-28T22:07:41.064Z,17.90
2022-10-28T22:10:26.243Z,15.82
2022-10-28T22:13:11.221Z,15.93
2022-10-28T22:16:01.579Z,16.52
2022-10-28T22:18:46.297Z,15.27
2022-10-28T22:21:33.605Z,15.93
2022-10-28T22:24:18.207Z,16.20
2022-10-28T22:27:03.343Z,15.65
2022-10-28T22:29:48.034Z,16.20
2022-10-28T22:32:33.005Z,16.35
2022-10-28T22:35:17.866Z,16.08
2022-10-28T22:38:02.682Z,16.10
2022-10-28T22:40:47.587Z,17.70
2022-10-28T22:43:33.348Z,15.18
2022-10-28T22:46:19.005Z,15.25
2022-10-28T22:49:03.914Z,16.42
2022-10-28T22:51:50.033Z,14.80
2022-10-28T22:54:34.753Z,14.77
2022-10-28T22:57:19.594Z,14.85
2022-10-28T23:00:04.895Z,13.73
2022-10-28T23:02:50.065Z,14.27
2022-10-28T23:05:34.768Z,14.30
2022-10-28T23:11:04.200Z,14.38
2022-10-28T23:13:53.412Z,16.02
2022-10-28T23:16:38.370Z,13.55
2022-10-28T23:19:23.034Z,13.07
2022-10-28T23:22:07.861Z,13.73
2022-10-28T23:24:52.964Z,13.35
2022-10-28T23:30:25.711Z,11.98
2022-10-28T23:33:10.664Z,12.57
2022-10-28T23:38:43.926Z,11.50
2022-10-28T23:41:28.714Z,13.50
2022-10-28T23:44:14.254Z,13.05
2022-10-28T23:46:59.236Z,13.50
2022-10-28T23:49:44.203Z,13.07
2022-10-28T23:52:29.189Z,14.10
2022-10-28T23:55:14.187Z,14.07
2022-10-28T23:57:59.311Z,14.07
